Pagina principale
METAR-TAF:

METAR-TAF

Aeroporti :

Okeechobee, Florida, Stati Uniti

latitudine: 27-15-58N, longitudine: 080-51-04W, altezza: 10 m

Osservazione

Il bollettino è stato emesso 20 minuti fa, alle 10:55 UTC
Vento 3 kt da nord/nord-est
Temperature 19°C
Umidità 94%
Pressione 1020 hPa
Visibilità: 16.1 km
Cielo sereno

METAR: KOBE 231055Z AUTO 03003KT 10SM CLR 19/18 A3012 RMK AO2

Ora: 07:15 (11:15 UTC)


TAF: mancante

Osservazioni e previsioni meteorologiche di più di 4000 aeroporti (messaggi METAR e TAF).

Le stazioni disponibili sono rappresentate dai dischi gialli e rossi sulla carta.

Puntare il mouse per vedere il nome della stazione.

Clicca sopra per visualizzare le osservazioni e previsioni meteorologiche.

Per cambiare la mappa : fare clic sui pulsanti verdi con una croce nera per ingrandire, il pulsante verde con un trattino per diminuire, o sulla freccia verde per le mappe adiacenti.


METAR-TAF: